Time;durP1;ratioP1;P1;durP2;ratioP2;P2;SDS_P1;SDS_P2;PMS_P1;PMS_P2;Temp;Humidity;BMP_temperature;BMP_pressure;BME280_temperature;BME280_humidity;BME280_pressure;Samples;Min_cycle;Max_cycle;Signal;HPM_P1;HPM_P2
2022/12/18 00:01:02;;;;;;;26.98;17.17;;;;;;;;;;5051087;28;20055;-66
2022/12/18 00:03:29;;;;;;;24.98;16.17;;;;;;;;;;5051005;28;20064;-66
2022/12/18 00:05:55;;;;;;;23.55;16.85;;;;;;;;;;5051170;28;20048;-65
2022/12/18 00:08:22;;;;;;;24.30;16.33;;;;;;;;;;5050740;28;20511;-66
2022/12/18 00:10:48;;;;;;;25.10;15.00;;;;;;;;;;5051073;28;20045;-65
2022/12/18 00:13:14;;;;;;;20.45;14.48;;;;;;;;;;5046180;28;20052;-65
2022/12/18 00:15:41;;;;;;;17.88;12.93;;;;;;;;;;5030897;28;20489;-65
2022/12/18 00:18:07;;;;;;;20.05;13.45;;;;;;;;;;5040214;28;20045;-65
2022/12/18 00:20:37;;;;;;;18.00;13.25;;;;;;;;;;5054960;28;20063;-66
2022/12/18 00:23:05;;;;;;;18.60;13.13;;;;;;;;;;5054843;28;20084;-65
2022/12/18 00:25:35;;;;;;;18.35;13.13;;;;;;;;;;5054996;28;20053;-66
2022/12/18 00:28:02;;;;;;;18.70;13.23;;;;;;;;;;5054587;28;20061;-64
2022/12/18 00:30:29;;;;;;;17.98;13.60;;;;;;;;;;5054699;28;20041;-65
2022/12/18 00:32:56;;;;;;;17.08;12.43;;;;;;;;;;5054479;28;20051;-65
2022/12/18 00:35:23;;;;;;;16.30;12.20;;;;;;;;;;5054942;28;20044;-65
2022/12/18 00:37:49;;;;;;;17.45;12.50;;;;;;;;;;5055004;28;20053;-65
2022/12/18 00:40:16;;;;;;;14.63;12.38;;;;;;;;;;5051681;28;20057;-65
2022/12/18 00:42:57;;;;;;;13.98;12.00;;;;;;;;;;5054358;28;20049;-65
2022/12/18 00:45:32;;;;;;;18.42;12.82;;;;;;;;;;5041035;28;20045;-65
2022/12/18 00:47:59;;;;;;;15.10;12.68;;;;;;;;;;5054509;28;20049;-65
2022/12/18 00:50:25;;;;;;;17.60;12.38;;;;;;;;;;5054990;28;20094;-65
2022/12/18 00:52:52;;;;;;;18.35;12.60;;;;;;;;;;5054685;28;20408;-65
2022/12/18 00:55:18;;;;;;;17.55;13.48;;;;;;;;;;5054658;28;20052;-65
2022/12/18 00:57:44;;;;;;;18.35;12.85;;;;;;;;;;5054842;28;20057;-65
2022/12/18 01:00:13;;;;;;;19.88;13.35;;;;;;;;;;5054544;28;20472;-65
2022/12/18 01:02:40;;;;;;;22.10;13.32;;;;;;;;;;5054742;28;20053;-65
2022/12/18 01:05:07;;;;;;;17.75;12.35;;;;;;;;;;5054394;28;20057;-65
2022/12/18 01:07:34;;;;;;;15.80;11.57;;;;;;;;;;5054518;28;20586;-65
2022/12/18 01:10:00;;;;;;;16.25;12.32;;;;;;;;;;5054571;28;20048;-65
2022/12/18 01:12:26;;;;;;;17.33;11.88;;;;;;;;;;5054435;28;20053;-65
2022/12/18 01:14:53;;;;;;;18.55;12.13;;;;;;;;;;5054483;28;20045;-65
2022/12/18 01:17:19;;;;;;;20.52;12.43;;;;;;;;;;5054528;28;20048;-65
2022/12/18 01:19:46;;;;;;;17.35;12.48;;;;;;;;;;5054287;28;20055;-65
2022/12/18 01:22:12;;;;;;;19.08;12.60;;;;;;;;;;5054128;28;20057;-65
2022/12/18 01:24:38;;;;;;;17.33;12.32;;;;;;;;;;5054183;28;20057;-65
2022/12/18 01:27:05;;;;;;;18.35;13.25;;;;;;;;;;5054264;28;20057;-65
2022/12/18 01:29:31;;;;;;;19.75;12.98;;;;;;;;;;5054414;28;20045;-65
2022/12/18 01:31:57;;;;;;;19.30;13.10;;;;;;;;;;5054342;28;20041;-65
2022/12/18 01:34:24;;;;;;;18.90;13.02;;;;;;;;;;5054147;28;20416;-65
2022/12/18 01:36:53;;;;;;;18.42;12.50;;;;;;;;;;5054157;28;20049;-65
2022/12/18 01:39:19;;;;;;;18.02;13.25;;;;;;;;;;5054126;28;20045;-65
2022/12/18 01:42:01;;;;;;;18.77;13.00;;;;;;;;;;5054202;28;20048;-65
2022/12/18 01:44:46;;;;;;;22.27;12.95;;;;;;;;;;5053904;28;20047;-65
2022/12/18 01:47:36;;;;;;;21.95;13.27;;;;;;;;;;5053999;28;20056;-65
2022/12/18 01:50:22;;;;;;;19.38;12.85;;;;;;;;;;5053223;28;20043;-65
2022/12/18 01:52:58;;;;;;;16.63;12.75;;;;;;;;;;5053498;28;20063;-65
2022/12/18 01:55:26;;;;;;;22.42;13.35;;;;;;;;;;5053666;28;20056;-65
2022/12/18 01:57:52;;;;;;;;;;;;;;;;;;5054196;28;20045;-65
2022/12/18 02:00:19;;;;;;;20.33;13.02;;;;;;;;;;5053634;28;19951;-65
2022/12/18 02:02:46;;;;;;;20.23;14.52;;;;;;;;;;5053743;28;20049;-65
2022/12/18 02:05:16;;;;;;;29.92;14.45;;;;;;;;;;5039606;28;20096;-65
2022/12/18 02:08:05;;;;;;;27.58;14.88;;;;;;;;;;5053287;28;20041;-65
2022/12/18 02:10:50;;;;;;;26.73;13.75;;;;;;;;;;5053170;28;20052;-65
2022/12/18 02:13:27;;;;;;;23.05;12.70;;;;;;;;;;5053592;28;20045;-65
2022/12/18 02:15:57;;;;;;;22.88;13.18;;;;;;;;;;5051939;28;20063;-65
2022/12/18 02:18:35;;;;;;;23.52;13.13;;;;;;;;;;5053508;28;20049;-65
2022/12/18 02:21:01;;;;;;;22.38;14.32;;;;;;;;;;5052316;28;20067;-65
2022/12/18 02:23:38;;;;;;;26.17;14.50;;;;;;;;;;5052667;28;20052;-65
2022/12/18 02:26:07;;;;;;;24.45;13.32;;;;;;;;;;5053356;28;20085;-65
2022/12/18 02:28:42;;;;;;;23.27;13.38;;;;;;;;;;5052699;28;20056;-65
2022/12/18 02:31:13;;;;;;;23.23;13.55;;;;;;;;;;5052877;28;20492;-65
2022/12/18 02:33:41;;;;;;;20.50;11.15;;;;;;;;;;5052915;28;20045;-65
2022/12/18 02:36:08;;;;;;;14.75;9.75;;;;;;;;;;5052797;28;20049;-65
2022/12/18 02:38:34;;;;;;;19.80;11.57;;;;;;;;;;5049860;28;20045;-65
2022/12/18 02:41:01;;;;;;;16.65;11.27;;;;;;;;;;5043992;28;20044;-65
2022/12/18 02:43:29;;;;;;;14.68;10.30;;;;;;;;;;5052314;28;20412;-65
2022/12/18 02:45:57;;;;;;;21.30;11.63;;;;;;;;;;5052824;28;20049;-65
2022/12/18 02:48:23;;;;;;;;;;;;;;;;;;5052837;28;20052;-65
2022/12/18 02:51:06;;;;;;;15.55;9.82;;;;;;;;;;5052659;28;19931;-65
2022/12/18 02:53:42;;;;;;;14.75;10.57;;;;;;;;;;5052662;28;20048;-65
2022/12/18 02:56:11;;;;;;;17.77;11.25;;;;;;;;;;5052344;28;20510;-65
2022/12/18 02:58:40;;;;;;;20.13;12.05;;;;;;;;;;5052506;28;20051;-65
2022/12/18 03:01:16;;;;;;;26.35;13.15;;;;;;;;;;5052601;28;20052;-65
2022/12/18 03:03:42;;;;;;;19.92;11.07;;;;;;;;;;5052153;28;20128;-65
2022/12/18 03:06:12;;;;;;;21.08;12.07;;;;;;;;;;5052249;28;20128;-65
2022/12/18 03:08:44;;;;;;;18.50;11.73;;;;;;;;;;5052471;28;20056;-65
2022/12/18 03:11:11;;;;;;;19.30;11.65;;;;;;;;;;5052261;28;20051;-65
2022/12/18 03:13:40;;;;;;;19.98;11.50;;;;;;;;;;5052291;28;20055;-65
2022/12/18 03:16:10;;;;;;;21.90;11.75;;;;;;;;;;5052303;28;20051;-65
2022/12/18 03:18:38;;;;;;;19.17;11.25;;;;;;;;;;5051961;28;20055;-65
2022/12/18 03:21:05;;;;;;;17.10;10.05;;;;;;;;;;5051897;28;20555;-65
2022/12/18 03:23:34;;;;;;;21.83;12.10;;;;;;;;;;5052005;28;20056;-65
2022/12/18 03:26:02;;;;;;;21.70;12.27;;;;;;;;;;5052191;28;20049;-65
2022/12/18 03:28:34;;;;;;;26.50;14.68;;;;;;;;;;5051828;28;20056;-65
2022/12/18 03:31:01;;;;;;;26.58;14.88;;;;;;;;;;5051673;28;20049;-65
2022/12/18 03:33:35;;;;;;;29.58;14.38;;;;;;;;;;5052157;28;20405;-65
2022/12/18 03:36:01;;;;;;;26.48;15.00;;;;;;;;;;5051721;28;20041;-65
2022/12/18 03:38:28;;;;;;;22.17;13.63;;;;;;;;;;5052020;28;20049;-65
2022/12/18 03:41:12;;;;;;;22.20;12.85;;;;;;;;;;5051673;28;20049;-65
2022/12/18 03:43:39;;;;;;;19.73;11.82;;;;;;;;;;5051905;28;20053;-65
2022/12/18 03:46:19;;;;;;;18.40;11.10;;;;;;;;;;5051656;28;20064;-65
2022/12/18 03:48:50;;;;;;;20.00;12.02;;;;;;;;;;5051592;28;20488;-65
2022/12/18 03:51:22;;;;;;;18.67;11.18;;;;;;;;;;5051012;28;20055;-65
2022/12/18 03:53:54;;;;;;;16.92;11.07;;;;;;;;;;5051606;28;20041;-65
2022/12/18 03:56:21;;;;;;;15.48;9.35;;;;;;;;;;5051612;28;20488;-65
2022/12/18 03:58:48;;;;;;;13.45;8.40;;;;;;;;;;5051763;28;20051;-65
2022/12/18 04:01:16;;;;;;;15.30;9.13;;;;;;;;;;5051542;28;20485;-65
2022/12/18 04:03:43;;;;;;;17.17;9.02;;;;;;;;;;5051468;28;20045;-65
2022/12/18 04:06:11;;;;;;;14.65;8.85;;;;;;;;;;5051769;28;20056;-65
2022/12/18 04:08:39;;;;;;;13.85;8.73;;;;;;;;;;5051413;28;20503;-65
2022/12/18 04:11:06;;;;;;;15.38;8.93;;;;;;;;;;5051702;28;20049;-65
2022/12/18 04:13:33;;;;;;;14.70;9.13;;;;;;;;;;5051521;28;20051;-65
2022/12/18 04:16:01;;;;;;;13.98;9.18;;;;;;;;;;5051490;28;20041;-65
2022/12/18 04:18:27;;;;;;;16.70;9.65;;;;;;;;;;5051405;28;20645;-65
2022/12/18 04:20:53;;;;;;;18.77;10.73;;;;;;;;;;5051354;28;20056;-65
2022/12/18 04:23:21;;;;;;;18.30;9.50;;;;;;;;;;5051561;28;20049;-65
2022/12/18 04:25:47;;;;;;;19.92;10.75;;;;;;;;;;5051371;28;20424;-65
2022/12/18 04:28:14;;;;;;;17.13;10.98;;;;;;;;;;5051047;28;20063;-65
2022/12/18 04:30:40;;;;;;;19.20;10.73;;;;;;;;;;5051548;28;20048;-65
2022/12/18 04:33:10;;;;;;;17.23;9.98;;;;;;;;;;5051184;28;20045;-65
2022/12/18 04:35:37;;;;;;;18.63;10.07;;;;;;;;;;5051127;28;20048;-65
2022/12/18 04:38:03;;;;;;;17.42;10.73;;;;;;;;;;5051157;28;20045;-65
2022/12/18 04:40:31;;;;;;;16.55;10.10;;;;;;;;;;5051492;28;20053;-65
2022/12/18 04:42:57;;;;;;;19.40;10.50;;;;;;;;;;5051223;28;20059;-65
2022/12/18 04:45:24;;;;;;;16.75;10.85;;;;;;;;;;5051235;28;20065;-65
2022/12/18 04:47:50;;;;;;;22.80;11.50;;;;;;;;;;5051385;28;20071;-65
2022/12/18 04:50:16;;;;;;;20.17;10.85;;;;;;;;;;5050937;28;20055;-65
2022/12/18 04:52:43;;;;;;;21.00;10.60;;;;;;;;;;5051304;28;20045;-65
2022/12/18 04:55:09;;;;;;;20.08;9.90;;;;;;;;;;5051147;28;20056;-65
2022/12/18 04:57:36;;;;;;;16.40;9.55;;;;;;;;;;5051267;28;20059;-65
2022/12/18 05:00:02;;;;;;;18.02;10.07;;;;;;;;;;5051108;28;20049;-65
2022/12/18 05:02:29;;;;;;;22.83;13.73;;;;;;;;;;5051941;28;20059;-65
2022/12/18 05:04:55;;;;;;;15.73;10.35;;;;;;;;;;5054422;28;20451;-65
2022/12/18 05:07:22;;;;;;;19.13;11.15;;;;;;;;;;5054876;28;20051;-65
2022/12/18 05:09:48;;;;;;;18.73;10.88;;;;;;;;;;5054583;28;20041;-65
2022/12/18 05:12:14;;;;;;;22.23;11.48;;;;;;;;;;5054486;28;20049;-65
2022/12/18 05:14:41;;;;;;;18.83;11.00;;;;;;;;;;5054524;28;20500;-65
2022/12/18 05:17:07;;;;;;;16.20;9.70;;;;;;;;;;5054278;28;20041;-65
2022/12/18 05:19:34;;;;;;;15.32;9.32;;;;;;;;;;5054295;28;20052;-65
2022/12/18 05:22:01;;;;;;;18.60;9.00;;;;;;;;;;5054465;28;20053;-65
2022/12/18 05:24:27;;;;;;;17.30;8.13;;;;;;;;;;5054487;28;20052;-65
2022/12/18 05:26:54;;;;;;;14.45;8.13;;;;;;;;;;5054098;28;20053;-65
2022/12/18 05:29:20;;;;;;;12.10;7.40;;;;;;;;;;5054208;28;20060;-65
2022/12/18 05:31:46;;;;;;;12.70;7.43;;;;;;;;;;5054012;28;20497;-65
2022/12/18 05:34:13;;;;;;;15.65;7.40;;;;;;;;;;5053972;28;20045;-65
2022/12/18 05:36:39;;;;;;;12.70;7.82;;;;;;;;;;5054217;28;20071;-65
2022/12/18 05:39:06;;;;;;;13.48;7.75;;;;;;;;;;5054085;28;20057;-65
2022/12/18 05:41:33;;;;;;;12.10;7.20;;;;;;;;;;5053896;28;20594;-65
2022/12/18 05:44:00;;;;;;;12.30;7.40;;;;;;;;;;5053896;28;20057;-65
2022/12/18 05:46:26;;;;;;;13.07;7.53;;;;;;;;;;5053951;28;20057;-65
2022/12/18 05:48:52;;;;;;;12.80;7.82;;;;;;;;;;5053693;28;20056;-65
2022/12/18 05:51:20;;;;;;;11.48;6.80;;;;;;;;;;5053654;28;20500;-65
2022/12/18 05:53:47;;;;;;;;;;;;;;;;;;5054266;28;20041;-65
2022/12/18 05:56:17;;;;;;;13.57;7.60;;;;;;;;;;5053768;28;19921;-65
2022/12/18 05:58:44;;;;;;;14.85;7.72;;;;;;;;;;5053551;28;20044;-65
2022/12/18 06:01:10;;;;;;;13.00;7.60;;;;;;;;;;5053778;28;20059;-65
2022/12/18 06:03:37;;;;;;;13.15;7.93;;;;;;;;;;5053365;28;20515;-65
2022/12/18 06:06:03;;;;;;;16.08;8.48;;;;;;;;;;5053726;28;20106;-65
2022/12/18 06:08:30;;;;;;;12.98;8.45;;;;;;;;;;5053552;28;20048;-65
2022/12/18 06:10:57;;;;;;;15.27;8.18;;;;;;;;;;5053638;28;20037;-65
2022/12/18 06:13:23;;;;;;;15.43;8.77;;;;;;;;;;5053255;28;20068;-65
2022/12/18 06:15:49;;;;;;;13.05;8.57;;;;;;;;;;5052645;28;20610;-65
2022/12/18 06:18:16;;;;;;;14.48;8.75;;;;;;;;;;5053511;28;20089;-65
2022/12/18 06:20:42;;;;;;;16.13;8.95;;;;;;;;;;5053256;28;20056;-65
2022/12/18 06:23:09;;;;;;;16.83;9.55;;;;;;;;;;5053277;28;20147;-65
2022/12/18 06:25:37;;;;;;;16.15;9.80;;;;;;;;;;5053129;28;20059;-65
2022/12/18 06:28:03;;;;;;;;;;;;;;;;;;5053223;28;20497;-65
2022/12/18 06:30:29;;;;;;;19.75;9.75;;;;;;;;;;5053212;28;19946;-65
2022/12/18 06:32:56;;;;;;;20.38;10.63;;;;;;;;;;5052826;28;20052;-65
2022/12/18 06:35:23;;;;;;;18.98;10.73;;;;;;;;;;5053216;28;20057;-65
2022/12/18 06:37:49;;;;;;;19.42;10.77;;;;;;;;;;5053094;28;20408;-65
2022/12/18 06:40:16;;;;;;;20.48;11.63;;;;;;;;;;5053098;28;20467;-65
2022/12/18 06:42:42;;;;;;;18.55;10.57;;;;;;;;;;5052989;28;20049;-65
2022/12/18 06:45:09;;;;;;;18.85;10.65;;;;;;;;;;5052981;28;20051;-65
2022/12/18 06:47:35;;;;;;;19.45;10.52;;;;;;;;;;5052636;28;20045;-65
2022/12/18 06:50:02;;;;;;;20.73;10.80;;;;;;;;;;5052770;28;20045;-65
2022/12/18 06:52:31;;;;;;;18.63;10.90;;;;;;;;;;5052586;28;20060;-65
2022/12/18 06:54:57;;;;;;;17.55;10.93;;;;;;;;;;5052788;28;20041;-65
2022/12/18 06:57:24;;;;;;;16.50;10.57;;;;;;;;;;5052461;28;20477;-65
2022/12/18 06:59:50;;;;;;;18.45;10.48;;;;;;;;;;5052655;28;20056;-65
2022/12/18 07:02:17;;;;;;;17.00;10.07;;;;;;;;;;5052587;28;20087;-65
2022/12/18 07:04:43;;;;;;;18.02;10.55;;;;;;;;;;5052650;28;20060;-65
2022/12/18 07:07:10;;;;;;;18.55;10.80;;;;;;;;;;5052545;28;20049;-65
2022/12/18 07:09:36;;;;;;;19.75;10.95;;;;;;;;;;5052482;28;20048;-65
2022/12/18 07:12:04;;;;;;;18.45;10.88;;;;;;;;;;5052304;28;20051;-65
2022/12/18 07:14:31;;;;;;;20.50;10.75;;;;;;;;;;5052129;28;20526;-65
2022/12/18 07:16:57;;;;;;;20.40;10.60;;;;;;;;;;5052304;28;20489;-65
2022/12/18 07:19:25;;;;;;;19.35;10.38;;;;;;;;;;5052191;28;20049;-65
2022/12/18 07:21:51;;;;;;;17.88;10.32;;;;;;;;;;5052289;28;20075;-65
2022/12/18 07:24:18;;;;;;;15.23;9.23;;;;;;;;;;5051926;28;20049;-65
2022/12/18 07:26:47;;;;;;;15.48;10.05;;;;;;;;;;5051948;28;20076;-65
2022/12/18 07:29:13;;;;;;;17.33;8.57;;;;;;;;;;5052206;28;20055;-65
2022/12/18 07:31:40;;;;;;;16.90;8.80;;;;;;;;;;5052074;28;20045;-65
2022/12/18 07:34:10;;;;;;;14.38;8.38;;;;;;;;;;5052151;28;20053;-65
2022/12/18 07:36:36;;;;;;;18.13;9.05;;;;;;;;;;5051717;28;20045;-65
2022/12/18 07:39:03;;;;;;;15.43;8.15;;;;;;;;;;5051706;28;20493;-65
2022/12/18 07:41:29;;;;;;;14.07;8.25;;;;;;;;;;5051950;28;20390;-65
2022/12/18 07:43:55;;;;;;;14.05;8.30;;;;;;;;;;5052000;28;20055;-65
2022/12/18 07:46:22;;;;;;;12.27;8.20;;;;;;;;;;5051906;28;20061;-65
2022/12/18 07:48:48;;;;;;;13.48;8.13;;;;;;;;;;5051566;28;20447;-65
2022/12/18 07:51:16;;;;;;;18.13;9.90;;;;;;;;;;5051607;28;20075;-65
2022/12/18 07:53:43;;;;;;;13.63;8.52;;;;;;;;;;5051892;28;20455;-65
2022/12/18 07:56:11;;;;;;;14.02;8.65;;;;;;;;;;5051526;28;20045;-65
2022/12/18 07:58:55;;;;;;;15.10;8.93;;;;;;;;;;5051538;28;20109;-65
2022/12/18 08:01:21;;;;;;;17.15;8.68;;;;;;;;;;5051487;28;20072;-65
2022/12/18 08:03:48;;;;;;;15.35;8.50;;;;;;;;;;5051621;28;20053;-65
2022/12/18 08:06:17;;;;;;;12.98;8.45;;;;;;;;;;5051482;28;20057;-65
2022/12/18 08:08:43;;;;;;;16.65;9.07;;;;;;;;;;5051607;28;20052;-65
2022/12/18 08:11:09;;;;;;;13.38;9.30;;;;;;;;;;5051062;28;20040;-65
2022/12/18 08:13:36;;;;;;;13.77;9.27;;;;;;;;;;5051394;28;20059;-65
2022/12/18 08:16:04;;;;;;;13.73;8.68;;;;;;;;;;5051463;28;20037;-65
2022/12/18 08:18:35;;;;;;;15.00;9.43;;;;;;;;;;5035056;28;20046;-65
2022/12/18 08:21:11;;;;;;;14.27;9.50;;;;;;;;;;5031623;28;20048;-65
2022/12/18 08:23:38;;;;;;;15.68;9.25;;;;;;;;;;5031635;28;20045;-64
2022/12/18 08:26:08;;;;;;;13.00;9.40;;;;;;;;;;5048800;28;20478;-63
2022/12/18 08:28:34;;;;;;;15.27;9.55;;;;;;;;;;5045959;28;20053;-64
2022/12/18 08:31:01;;;;;;;16.85;10.02;;;;;;;;;;5037334;28;20115;-63
2022/12/18 08:33:29;;;;;;;;;;;;;;;;;;5031156;28;20088;-64
2022/12/18 08:35:55;;;;;;;16.52;10.52;;;;;;;;;;5032852;28;19921;-63
2022/12/18 08:38:23;;;;;;;16.80;10.85;;;;;;;;;;5053423;28;20065;-64
2022/12/18 08:40:49;;;;;;;16.98;10.65;;;;;;;;;;5054377;28;20056;-63
2022/12/18 08:46:00;;;;;;;16.30;10.18;;;;;;;;;;5039971;28;20496;-64
2022/12/18 08:48:27;;;;;;;17.98;9.98;;;;;;;;;;5035593;28;20060;-64
2022/12/18 08:50:57;;;;;;;18.42;11.05;;;;;;;;;;5034120;28;20048;-64
2022/12/18 08:53:24;;;;;;;21.52;11.80;;;;;;;;;;5051670;28;20648;-64
2022/12/18 08:55:50;;;;;;;19.67;11.63;;;;;;;;;;5054022;28;20045;-64
2022/12/18 08:58:17;;;;;;;18.90;11.13;;;;;;;;;;5052366;28;20049;-65
2022/12/18 09:00:43;;;;;;;21.35;11.48;;;;;;;;;;5033640;28;20045;-65
2022/12/18 09:03:11;;;;;;;20.77;12.13;;;;;;;;;;5033810;28;20056;-65
2022/12/18 09:05:38;;;;;;;22.50;11.80;;;;;;;;;;5035001;28;20060;-64
2022/12/18 09:08:04;;;;;;;18.88;12.02;;;;;;;;;;5037087;28;20053;-64
2022/12/18 09:10:31;;;;;;;21.30;12.63;;;;;;;;;;5032278;28;20045;-65
2022/12/18 09:12:57;;;;;;;22.20;13.10;;;;;;;;;;5033554;28;20409;-64
2022/12/18 09:15:24;;;;;;;21.10;12.93;;;;;;;;;;5033980;28;20053;-64
2022/12/18 09:17:50;;;;;;;24.13;13.38;;;;;;;;;;5038149;28;20047;-65
2022/12/18 09:20:17;;;;;;;19.00;12.15;;;;;;;;;;5053872;28;20053;-65
2022/12/18 09:22:43;;;;;;;21.73;13.07;;;;;;;;;;5053580;28;20049;-65
2022/12/18 09:25:10;;;;;;;19.98;13.30;;;;;;;;;;5048695;28;20046;-64
2022/12/18 09:27:36;;;;;;;20.60;12.85;;;;;;;;;;5031495;28;20064;-64
2022/12/18 09:30:03;;;;;;;21.42;12.75;;;;;;;;;;5040987;28;20052;-64
2022/12/18 09:32:29;;;;;;;23.23;13.40;;;;;;;;;;5038402;28;20045;-64
2022/12/18 09:34:56;;;;;;;23.20;13.88;;;;;;;;;;5033333;28;20044;-65
2022/12/18 09:37:22;;;;;;;19.92;14.60;;;;;;;;;;5033340;28;20048;-65
2022/12/18 09:39:48;;;;;;;21.95;13.90;;;;;;;;;;5031332;28;20049;-64
2022/12/18 09:42:20;;;;;;;23.88;14.82;;;;;;;;;;5043052;28;20057;-65
2022/12/18 09:44:53;;;;;;;26.23;13.80;;;;;;;;;;5050496;28;20492;-65
2022/12/18 09:47:28;;;;;;;20.65;13.45;;;;;;;;;;5050503;28;20053;-65
2022/12/18 09:49:57;;;;;;;25.77;14.57;;;;;;;;;;5031970;28;20141;-65
2022/12/18 09:52:24;;;;;;;23.10;14.10;;;;;;;;;;5033085;28;20046;-65
2022/12/18 09:54:54;;;;;;;22.95;14.18;;;;;;;;;;5049962;28;20040;-64
2022/12/18 09:57:22;;;;;;;21.67;13.05;;;;;;;;;;5053054;28;20048;-65
2022/12/18 10:00:08;;;;;;;24.65;14.65;;;;;;;;;;5052823;28;20049;-65
2022/12/18 10:02:35;;;;;;;23.58;14.65;;;;;;;;;;5047387;28;20053;-64
2022/12/18 10:05:01;;;;;;;23.42;13.68;;;;;;;;;;5045361;28;20053;-64
2022/12/18 10:07:36;;;;;;;22.70;13.98;;;;;;;;;;5047994;28;20143;-65
2022/12/18 10:10:22;;;;;;;26.33;14.65;;;;;;;;;;5047436;28;20037;-65
2022/12/18 10:13:01;;;;;;;23.73;14.52;;;;;;;;;;5032599;28;20136;-65
2022/12/18 10:15:50;;;;;;;25.05;14.63;;;;;;;;;;5051831;28;20044;-65
2022/12/18 10:18:16;;;;;;;24.30;14.48;;;;;;;;;;5052598;28;20056;-65
2022/12/18 10:20:59;;;;;;;25.45;15.63;;;;;;;;;;5052842;28;20128;-65
2022/12/18 10:23:29;;;;;;;26.52;15.85;;;;;;;;;;5052801;28;20059;-65
2022/12/18 10:26:01;;;;;;;21.02;14.32;;;;;;;;;;5050544;28;20536;-65
2022/12/18 10:28:29;;;;;;;23.55;15.95;;;;;;;;;;5052034;28;20116;-65
2022/12/18 10:30:55;;;;;;;26.45;16.90;;;;;;;;;;5052555;28;20370;-65
2022/12/18 10:33:23;;;;;;;29.10;16.27;;;;;;;;;;5052718;28;20045;-65
2022/12/18 10:35:53;;;;;;;28.30;16.13;;;;;;;;;;5047543;28;20053;-65
2022/12/18 10:38:25;;;;;;;30.50;16.70;;;;;;;;;;5052248;28;20045;-65
2022/12/18 10:40:51;;;;;;;25.05;16.13;;;;;;;;;;5052450;28;20388;-65
2022/12/18 10:43:22;;;;;;;26.10;15.45;;;;;;;;;;5052642;28;20060;-65
2022/12/18 10:46:12;;;;;;;24.50;16.27;;;;;;;;;;5048401;28;20103;-66
2022/12/18 10:48:39;;;;;;;26.85;15.60;;;;;;;;;;5044216;28;20052;-65
2022/12/18 10:51:07;;;;;;;24.83;15.50;;;;;;;;;;5038705;28;20045;-65
2022/12/18 10:53:40;;;;;;;24.48;16.08;;;;;;;;;;5031962;28;20128;-65
2022/12/18 10:56:06;;;;;;;27.05;16.15;;;;;;;;;;5041827;28;20071;-65
2022/12/18 10:58:34;;;;;;;25.42;16.30;;;;;;;;;;5037563;28;20048;-65
2022/12/18 11:01:11;;;;;;;27.52;15.73;;;;;;;;;;5051304;28;20053;-66
2022/12/18 11:03:40;;;;;;;26.38;16.45;;;;;;;;;;5051708;28;20064;-66
2022/12/18 11:06:09;;;;;;;29.70;17.13;;;;;;;;;;5051925;28;20059;-65
2022/12/18 11:08:36;;;;;;;28.38;16.48;;;;;;;;;;5048202;28;20050;-66
2022/12/18 11:11:04;;;;;;;27.15;17.33;;;;;;;;;;5050554;28;20048;-65
2022/12/18 11:13:31;;;;;;;27.60;15.55;;;;;;;;;;5051327;28;20099;-66
2022/12/18 11:15:58;;;;;;;29.25;16.65;;;;;;;;;;5051049;28;20040;-66
2022/12/18 11:18:34;;;;;;;26.73;16.98;;;;;;;;;;5051659;28;20578;-65
2022/12/18 11:21:08;;;;;;;26.08;16.17;;;;;;;;;;5052276;28;20056;-65
2022/12/18 11:23:36;;;;;;;27.00;16.13;;;;;;;;;;5038989;28;20057;-65
2022/12/18 11:26:03;;;;;;;28.00;17.90;;;;;;;;;;5051452;28;20050;-65
2022/12/18 11:28:45;;;;;;;34.58;20.40;;;;;;;;;;5051767;28;20053;-65
2022/12/18 11:31:14;;;;;;;38.42;24.85;;;;;;;;;;5039967;28;20049;-66
2022/12/18 11:33:44;;;;;;;41.22;25.60;;;;;;;;;;5042010;28;20107;-66
2022/12/18 11:36:36;;;;;;;41.50;25.92;;;;;;;;;;5048283;28;20060;-66
2022/12/18 11:39:10;;;;;;;45.70;27.70;;;;;;;;;;5043761;28;20404;-66
2022/12/18 11:44:51;;;;;;;32.72;20.38;;;;;;;;;;5037906;28;20427;-66
2022/12/18 11:47:25;;;;;;;28.25;17.40;;;;;;;;;;5044831;28;20081;-66
2022/12/18 11:49:52;;;;;;;30.88;18.20;;;;;;;;;;5050102;28;20052;-66
2022/12/18 11:52:21;;;;;;;29.20;18.73;;;;;;;;;;5049432;28;20042;-66
2022/12/18 11:54:51;;;;;;;28.83;18.05;;;;;;;;;;5049352;28;20274;-67
2022/12/18 11:57:21;;;;;;;31.00;18.95;;;;;;;;;;5050152;28;20106;-66
2022/12/18 11:59:47;;;;;;;30.67;18.95;;;;;;;;;;5050010;28;20067;-66
2022/12/18 12:02:16;;;;;;;27.70;17.23;;;;;;;;;;5051720;28;20060;-66
2022/12/18 12:05:06;;;;;;;25.50;15.85;;;;;;;;;;5051548;28;20040;-65
2022/12/18 12:07:55;;;;;;;24.15;15.75;;;;;;;;;;5050809;28;20049;-65
2022/12/18 12:10:34;;;;;;;24.52;16.15;;;;;;;;;;5051649;28;20144;-65
2022/12/18 12:13:19;;;;;;;25.25;15.55;;;;;;;;;;5053531;28;20404;-66
2022/12/18 12:16:15;;;;;;;24.10;14.57;;;;;;;;;;5055590;28;20052;-66
2022/12/18 12:18:51;;;;;;;20.15;14.23;;;;;;;;;;5054937;28;20080;-65
2022/12/18 12:21:21;;;;;;;23.27;14.95;;;;;;;;;;5055721;28;20560;-66
2022/12/18 12:23:47;;;;;;;21.65;15.27;;;;;;;;;;5055361;28;20059;-66
2022/12/18 12:26:16;;;;;;;20.42;13.98;;;;;;;;;;5055646;28;20053;-66
2022/12/18 12:28:42;;;;;;;19.15;12.90;;;;;;;;;;5055097;28;20053;-66
2022/12/18 12:31:12;;;;;;;19.67;13.43;;;;;;;;;;5054801;28;20508;-66
2022/12/18 12:33:41;;;;;;;18.58;12.95;;;;;;;;;;5043069;28;20045;-65
2022/12/18 12:36:26;;;;;;;18.92;12.52;;;;;;;;;;5034212;28;20053;-65
2022/12/18 12:38:55;;;;;;;18.17;12.35;;;;;;;;;;5053085;28;20412;-66
2022/12/18 12:44:09;;;;;;;;;;;;;;;;;;5054673;28;20068;-66
2022/12/18 12:46:39;;;;;;;17.08;10.68;;;;;;;;;;5052194;28;19929;-66
2022/12/18 12:49:19;;;;;;;13.75;10.30;;;;;;;;;;5054059;28;20554;-66
2022/12/18 12:51:53;;;;;;;16.52;10.30;;;;;;;;;;5054219;28;20049;-66
2022/12/18 12:54:23;;;;;;;17.20;11.13;;;;;;;;;;5054667;28;20401;-66
2022/12/18 12:57:01;;;;;;;14.95;10.65;;;;;;;;;;5054491;28;20047;-65
2022/12/18 12:59:30;;;;;;;11.93;8.32;;;;;;;;;;5054226;28;20048;-66
2022/12/18 13:02:02;;;;;;;12.50;9.52;;;;;;;;;;5046809;28;20107;-66
2022/12/18 13:04:29;;;;;;;12.70;8.90;;;;;;;;;;5043604;28;20049;-66
2022/12/18 13:06:55;;;;;;;12.00;7.82;;;;;;;;;;5052978;28;20049;-66
2022/12/18 13:09:22;;;;;;;12.13;7.70;;;;;;;;;;5053594;28;20136;-66
2022/12/18 13:14:35;;;;;;;7.93;6.45;;;;;;;;;;5054539;28;20459;-66
2022/12/18 13:17:17;;;;;;;7.95;6.38;;;;;;;;;;5054801;28;20092;-65
2022/12/18 13:19:44;;;;;;;6.95;5.68;;;;;;;;;;5054462;28;20041;-65
2022/12/18 13:22:23;;;;;;;6.80;5.68;;;;;;;;;;5054408;28;20049;-65
2022/12/18 13:24:50;;;;;;;6.82;5.53;;;;;;;;;;5053838;28;20485;-65
2022/12/18 13:27:36;;;;;;;7.43;5.85;;;;;;;;;;5054257;28;20053;-65
2022/12/18 13:30:18;;;;;;;7.45;4.82;;;;;;;;;;5054317;28;20102;-65
2022/12/18 13:32:44;;;;;;;7.60;4.90;;;;;;;;;;5054330;28;20072;-63
2022/12/18 13:35:18;;;;;;;5.00;4.03;;;;;;;;;;5054144;28;20413;-64
2022/12/18 13:37:51;;;;;;;4.78;4.13;;;;;;;;;;5048186;28;20053;-65
2022/12/18 13:40:36;;;;;;;3.80;3.17;;;;;;;;;;5053429;28;20489;-65
2022/12/18 13:43:13;;;;;;;4.07;3.67;;;;;;;;;;5039501;28;20072;-64
2022/12/18 13:45:42;;;;;;;4.83;3.37;;;;;;;;;;5033472;28;20054;-64
2022/12/18 13:48:17;;;;;;;3.10;2.80;;;;;;;;;;5052435;28;20289;-64
2022/12/18 13:50:47;;;;;;;3.45;2.72;;;;;;;;;;5053498;28;20049;-64
2022/12/18 13:53:27;;;;;;;2.72;2.47;;;;;;;;;;5053545;28;20049;-64
2022/12/18 13:55:54;;;;;;;3.33;2.83;;;;;;;;;;5053242;28;20053;-64
2022/12/18 13:58:20;;;;;;;2.45;2.25;;;;;;;;;;5038371;28;20481;-63
2022/12/18 14:00:47;;;;;;;4.55;2.90;;;;;;;;;;5042728;28;20394;-64
2022/12/18 14:03:17;;;;;;;2.55;2.25;;;;;;;;;;5053283;28;20397;-64
2022/12/18 14:05:53;;;;;;;2.80;2.55;;;;;;;;;;5053211;28;20049;-64
2022/12/18 14:08:20;;;;;;;2.15;1.95;;;;;;;;;;5052948;28;20060;-64
2022/12/18 14:10:47;;;;;;;2.30;2.10;;;;;;;;;;5052842;28;20488;-65
2022/12/18 14:13:19;;;;;;;2.97;2.55;;;;;;;;;;5052829;28;20565;-65
2022/12/18 14:15:47;;;;;;;2.72;2.17;;;;;;;;;;5052962;28;20052;-65
2022/12/18 14:18:14;;;;;;;3.22;2.70;;;;;;;;;;5052751;28;20505;-65
2022/12/18 14:20:42;;;;;;;3.05;2.80;;;;;;;;;;5052592;28;20052;-65
2022/12/18 14:23:33;;;;;;;3.53;2.33;;;;;;;;;;5052422;28;20102;-64
2022/12/18 14:26:00;;;;;;;2.65;2.45;;;;;;;;;;5052564;28;20500;-64
2022/12/18 14:28:31;;;;;;;3.00;2.70;;;;;;;;;;5052482;28;20057;-64
2022/12/18 14:30:57;;;;;;;2.47;2.28;;;;;;;;;;5052601;28;20467;-64
2022/12/18 14:33:26;;;;;;;2.53;2.33;;;;;;;;;;5052491;28;20404;-65
2022/12/18 14:35:52;;;;;;;;;;;;;;;;;;5052321;28;20045;-65
2022/12/18 14:38:24;;;;;;;2.30;2.10;;;;;;;;;;5040587;28;19931;-65
2022/12/18 14:40:55;;;;;;;2.92;2.28;;;;;;;;;;5052626;28;20071;-65
2022/12/18 14:43:22;;;;;;;3.20;2.22;;;;;;;;;;5052547;28;20075;-65
2022/12/18 14:45:49;;;;;;;3.00;2.25;;;;;;;;;;5052506;28;20049;-65
2022/12/18 14:48:25;;;;;;;2.55;2.00;;;;;;;;;;5051149;28;20508;-65
2022/12/18 14:50:55;;;;;;;2.72;2.20;;;;;;;;;;5034361;28;20064;-65